sensor_id;sensor_type;location;lat;lon;timestamp;temperature;humidity
46091;DHT22;31826;53.572;10.170;2023-04-25T00:00:34;8.50;99.90
46091;DHT22;31826;53.572;10.170;2023-04-25T00:02:59;8.40;99.90
46091;DHT22;31826;53.572;10.170;2023-04-25T00:05:26;8.30;99.90
46091;DHT22;31826;53.572;10.170;2023-04-25T00:07:52;8.40;99.90
46091;DHT22;31826;53.572;10.170;2023-04-25T00:10:19;8.40;99.90
46091;DHT22;31826;53.572;10.170;2023-04-25T00:12:45;8.40;99.90
46091;DHT22;31826;53.572;10.170;2023-04-25T00:15:12;8.40;99.90
46091;DHT22;31826;53.572;10.170;2023-04-25T00:17:37;8.40;99.90
46091;DHT22;31826;53.572;10.170;2023-04-25T00:20:06;8.40;99.90
46091;DHT22;31826;53.572;10.170;2023-04-25T00:22:35;8.40;99.90
46091;DHT22;31826;53.572;10.170;2023-04-25T00:25:03;8.40;99.90
46091;DHT22;31826;53.572;10.170;2023-04-25T00:27:29;8.30;99.90
46091;DHT22;31826;53.572;10.170;2023-04-25T00:29:55;8.30;99.90
46091;DHT22;31826;53.572;10.170;2023-04-25T00:32:20;8.30;99.90
46091;DHT22;31826;53.572;10.170;2023-04-25T00:34:46;8.20;99.90
46091;DHT22;31826;53.572;10.170;2023-04-25T00:37:12;8.10;99.90
46091;DHT22;31826;53.572;10.170;2023-04-25T00:39:38;8.00;99.90
46091;DHT22;31826;53.572;10.170;2023-04-25T00:42:03;8.00;99.90
46091;DHT22;31826;53.572;10.170;2023-04-25T00:44:31;8.00;99.90
46091;DHT22;31826;53.572;10.170;2023-04-25T00:46:58;8.00;99.90
46091;DHT22;31826;53.572;10.170;2023-04-25T00:49:23;8.00;99.90
46091;DHT22;31826;53.572;10.170;2023-04-25T00:51:49;8.00;99.90
46091;DHT22;31826;53.572;10.170;2023-04-25T00:54:15;8.00;99.90
46091;DHT22;31826;53.572;10.170;2023-04-25T00:56:41;7.90;99.90
46091;DHT22;31826;53.572;10.170;2023-04-25T00:59:09;7.80;99.90
46091;DHT22;31826;53.572;10.170;2023-04-25T01:01:35;7.90;99.90
46091;DHT22;31826;53.572;10.170;2023-04-25T01:04:01;7.90;99.90
46091;DHT22;31826;53.572;10.170;2023-04-25T01:06:27;7.70;99.90
46091;DHT22;31826;53.572;10.170;2023-04-25T01:08:53;7.80;99.90
46091;DHT22;31826;53.572;10.170;2023-04-25T01:11:19;7.70;99.90
46091;DHT22;31826;53.572;10.170;2023-04-25T01:13:45;7.80;99.90
46091;DHT22;31826;53.572;10.170;2023-04-25T01:16:11;7.80;99.90
46091;DHT22;31826;53.572;10.170;2023-04-25T01:18:38;7.80;99.90
46091;DHT22;31826;53.572;10.170;2023-04-25T01:21:10;7.80;99.90
46091;DHT22;31826;53.572;10.170;2023-04-25T01:23:37;7.80;99.90
46091;DHT22;31826;53.572;10.170;2023-04-25T01:26:03;7.80;99.90
46091;DHT22;31826;53.572;10.170;2023-04-25T01:28:29;7.80;99.90
46091;DHT22;31826;53.572;10.170;2023-04-25T01:30:56;7.70;99.90
46091;DHT22;31826;53.572;10.170;2023-04-25T01:33:22;7.70;99.90
46091;DHT22;31826;53.572;10.170;2023-04-25T01:35:48;7.60;99.90
46091;DHT22;31826;53.572;10.170;2023-04-25T01:38:14;7.60;99.90
46091;DHT22;31826;53.572;10.170;2023-04-25T01:40:41;7.60;99.90
46091;DHT22;31826;53.572;10.170;2023-04-25T01:43:10;7.60;99.90
46091;DHT22;31826;53.572;10.170;2023-04-25T01:45:38;7.50;99.90
46091;DHT22;31826;53.572;10.170;2023-04-25T01:48:07;7.50;99.90
46091;DHT22;31826;53.572;10.170;2023-04-25T01:50:33;7.40;99.90
46091;DHT22;31826;53.572;10.170;2023-04-25T01:52:59;7.40;99.90
46091;DHT22;31826;53.572;10.170;2023-04-25T01:55:25;7.40;99.90
46091;DHT22;31826;53.572;10.170;2023-04-25T01:57:51;7.40;99.90
46091;DHT22;31826;53.572;10.170;2023-04-25T02:00:17;7.30;99.90
46091;DHT22;31826;53.572;10.170;2023-04-25T02:02:43;7.30;99.90
46091;DHT22;31826;53.572;10.170;2023-04-25T02:05:09;7.30;99.90
46091;DHT22;31826;53.572;10.170;2023-04-25T02:07:35;7.30;99.90
46091;DHT22;31826;53.572;10.170;2023-04-25T02:10:00;7.20;99.90
46091;DHT22;31826;53.572;10.170;2023-04-25T02:12:27;7.00;99.90
46091;DHT22;31826;53.572;10.170;2023-04-25T02:14:53;7.10;99.90
46091;DHT22;31826;53.572;10.170;2023-04-25T02:17:19;7.20;99.90
46091;DHT22;31826;53.572;10.170;2023-04-25T02:19:44;7.10;99.90
46091;DHT22;31826;53.572;10.170;2023-04-25T02:22:10;7.20;99.90
46091;DHT22;31826;53.572;10.170;2023-04-25T02:24:36;7.10;99.90
46091;DHT22;31826;53.572;10.170;2023-04-25T02:27:02;7.10;99.90
46091;DHT22;31826;53.572;10.170;2023-04-25T02:29:28;7.10;99.90
46091;DHT22;31826;53.572;10.170;2023-04-25T02:31:54;7.20;99.90
46091;DHT22;31826;53.572;10.170;2023-04-25T02:34:20;7.10;99.90
46091;DHT22;31826;53.572;10.170;2023-04-25T02:36:46;7.00;99.90
46091;DHT22;31826;53.572;10.170;2023-04-25T02:39:11;7.00;99.90
46091;DHT22;31826;53.572;10.170;2023-04-25T02:41:37;7.00;99.90
46091;DHT22;31826;53.572;10.170;2023-04-25T02:44:03;7.00;99.90
46091;DHT22;31826;53.572;10.170;2023-04-25T02:46:28;6.90;99.90
46091;DHT22;31826;53.572;10.170;2023-04-25T02:48:54;7.00;99.90
46091;DHT22;31826;53.572;10.170;2023-04-25T02:51:20;7.00;99.90
46091;DHT22;31826;53.572;10.170;2023-04-25T02:53:45;7.00;99.90
46091;DHT22;31826;53.572;10.170;2023-04-25T02:56:11;7.00;99.90
46091;DHT22;31826;53.572;10.170;2023-04-25T02:58:37;7.10;99.90
46091;DHT22;31826;53.572;10.170;2023-04-25T03:01:02;7.10;99.90
46091;DHT22;31826;53.572;10.170;2023-04-25T03:03:28;7.00;99.90
46091;DHT22;31826;53.572;10.170;2023-04-25T03:05:54;7.00;99.90
46091;DHT22;31826;53.572;10.170;2023-04-25T03:08:19;7.00;99.90
46091;DHT22;31826;53.572;10.170;2023-04-25T03:10:45;7.00;99.90
46091;DHT22;31826;53.572;10.170;2023-04-25T03:13:11;6.90;99.90
46091;DHT22;31826;53.572;10.170;2023-04-25T03:15:38;6.90;99.90
46091;DHT22;31826;53.572;10.170;2023-04-25T03:18:03;6.90;99.90
46091;DHT22;31826;53.572;10.170;2023-04-25T03:20:29;6.90;99.90
46091;DHT22;31826;53.572;10.170;2023-04-25T03:22:55;6.80;99.90
46091;DHT22;31826;53.572;10.170;2023-04-25T03:25:21;6.80;99.90
46091;DHT22;31826;53.572;10.170;2023-04-25T03:27:47;6.80;99.90
46091;DHT22;31826;53.572;10.170;2023-04-25T03:30:12;6.70;99.90
46091;DHT22;31826;53.572;10.170;2023-04-25T03:32:38;6.70;99.90
46091;DHT22;31826;53.572;10.170;2023-04-25T03:35:04;6.80;99.90
46091;DHT22;31826;53.572;10.170;2023-04-25T03:37:31;6.70;99.90
46091;DHT22;31826;53.572;10.170;2023-04-25T03:39:56;6.60;99.90
46091;DHT22;31826;53.572;10.170;2023-04-25T03:42:22;6.60;99.90
46091;DHT22;31826;53.572;10.170;2023-04-25T03:44:51;6.50;99.90
46091;DHT22;31826;53.572;10.170;2023-04-25T03:47:17;6.50;99.90
46091;DHT22;31826;53.572;10.170;2023-04-25T03:49:43;6.40;99.90
46091;DHT22;31826;53.572;10.170;2023-04-25T03:52:09;6.50;99.90
46091;DHT22;31826;53.572;10.170;2023-04-25T03:54:35;6.40;99.90
46091;DHT22;31826;53.572;10.170;2023-04-25T03:57:01;6.50;99.90
46091;DHT22;31826;53.572;10.170;2023-04-25T03:59:27;6.40;99.90
46091;DHT22;31826;53.572;10.170;2023-04-25T04:01:52;6.50;99.90
46091;DHT22;31826;53.572;10.170;2023-04-25T04:04:18;6.50;99.90
46091;DHT22;31826;53.572;10.170;2023-04-25T04:06:44;6.50;99.90
46091;DHT22;31826;53.572;10.170;2023-04-25T04:09:11;6.50;99.90
46091;DHT22;31826;53.572;10.170;2023-04-25T04:11:38;6.60;99.90
46091;DHT22;31826;53.572;10.170;2023-04-25T04:14:06;6.60;99.90
46091;DHT22;31826;53.572;10.170;2023-04-25T04:16:32;6.50;99.90
46091;DHT22;31826;53.572;10.170;2023-04-25T04:18:58;6.60;99.90
46091;DHT22;31826;53.572;10.170;2023-04-25T04:21:24;6.50;99.90
46091;DHT22;31826;53.572;10.170;2023-04-25T04:23:49;6.50;99.90
46091;DHT22;31826;53.572;10.170;2023-04-25T04:26:15;6.50;99.90
46091;DHT22;31826;53.572;10.170;2023-04-25T04:28:44;6.50;99.90
46091;DHT22;31826;53.572;10.170;2023-04-25T04:31:10;6.40;99.90
46091;DHT22;31826;53.572;10.170;2023-04-25T04:33:36;6.50;99.90
46091;DHT22;31826;53.572;10.170;2023-04-25T04:36:03;6.50;99.90
46091;DHT22;31826;53.572;10.170;2023-04-25T04:38:29;6.50;99.90
46091;DHT22;31826;53.572;10.170;2023-04-25T04:40:54;6.40;99.90
46091;DHT22;31826;53.572;10.170;2023-04-25T04:43:21;6.40;99.90
46091;DHT22;31826;53.572;10.170;2023-04-25T04:45:48;6.50;99.90
46091;DHT22;31826;53.572;10.170;2023-04-25T04:48:16;6.40;99.90
46091;DHT22;31826;53.572;10.170;2023-04-25T04:50:43;6.40;99.90
46091;DHT22;31826;53.572;10.170;2023-04-25T04:53:10;6.40;99.90
46091;DHT22;31826;53.572;10.170;2023-04-25T04:55:36;6.40;99.90
46091;DHT22;31826;53.572;10.170;2023-04-25T04:58:01;6.40;99.90
46091;DHT22;31826;53.572;10.170;2023-04-25T05:00:27;6.50;99.90
46091;DHT22;31826;53.572;10.170;2023-04-25T05:02:55;6.50;99.90
46091;DHT22;31826;53.572;10.170;2023-04-25T05:05:21;6.60;99.90
46091;DHT22;31826;53.572;10.170;2023-04-25T05:07:46;6.60;99.90
46091;DHT22;31826;53.572;10.170;2023-04-25T05:10:12;6.60;99.90
46091;DHT22;31826;53.572;10.170;2023-04-25T05:12:38;6.70;99.90
46091;DHT22;31826;53.572;10.170;2023-04-25T05:15:03;6.70;99.90
46091;DHT22;31826;53.572;10.170;2023-04-25T05:17:29;6.70;99.90
46091;DHT22;31826;53.572;10.170;2023-04-25T05:19:55;6.80;99.90
46091;DHT22;31826;53.572;10.170;2023-04-25T05:22:21;6.60;99.90
46091;DHT22;31826;53.572;10.170;2023-04-25T05:24:46;6.70;99.90
46091;DHT22;31826;53.572;10.170;2023-04-25T05:27:13;6.70;99.90
46091;DHT22;31826;53.572;10.170;2023-04-25T05:29:39;6.60;99.90
46091;DHT22;31826;53.572;10.170;2023-04-25T05:32:05;6.60;99.90
46091;DHT22;31826;53.572;10.170;2023-04-25T05:34:31;6.60;99.90
46091;DHT22;31826;53.572;10.170;2023-04-25T05:36:56;6.50;99.90
46091;DHT22;31826;53.572;10.170;2023-04-25T05:39:22;6.60;99.90
46091;DHT22;31826;53.572;10.170;2023-04-25T05:41:48;6.50;99.90
46091;DHT22;31826;53.572;10.170;2023-04-25T05:44:13;6.50;99.90
46091;DHT22;31826;53.572;10.170;2023-04-25T05:46:41;6.40;99.90
46091;DHT22;31826;53.572;10.170;2023-04-25T05:49:06;6.40;99.90
46091;DHT22;31826;53.572;10.170;2023-04-25T05:51:32;6.50;99.90
46091;DHT22;31826;53.572;10.170;2023-04-25T05:53:58;6.50;99.90
46091;DHT22;31826;53.572;10.170;2023-04-25T05:56:23;6.60;99.90
46091;DHT22;31826;53.572;10.170;2023-04-25T05:58:49;6.50;99.90
46091;DHT22;31826;53.572;10.170;2023-04-25T06:01:15;6.60;99.90
46091;DHT22;31826;53.572;10.170;2023-04-25T06:03:41;6.60;99.90
46091;DHT22;31826;53.572;10.170;2023-04-25T06:06:08;6.70;99.90
46091;DHT22;31826;53.572;10.170;2023-04-25T06:08:34;6.70;99.90
46091;DHT22;31826;53.572;10.170;2023-04-25T06:11:00;6.70;99.90
46091;DHT22;31826;53.572;10.170;2023-04-25T06:13:26;6.70;99.90
46091;DHT22;31826;53.572;10.170;2023-04-25T06:15:52;6.80;99.90
46091;DHT22;31826;53.572;10.170;2023-04-25T06:18:17;6.80;99.90
46091;DHT22;31826;53.572;10.170;2023-04-25T06:20:43;6.90;99.90
46091;DHT22;31826;53.572;10.170;2023-04-25T06:23:09;6.90;99.90
46091;DHT22;31826;53.572;10.170;2023-04-25T06:25:34;7.00;99.90
46091;DHT22;31826;53.572;10.170;2023-04-25T06:28:00;7.00;99.90
46091;DHT22;31826;53.572;10.170;2023-04-25T06:30:26;7.20;99.90
46091;DHT22;31826;53.572;10.170;2023-04-25T06:32:52;7.20;99.90
46091;DHT22;31826;53.572;10.170;2023-04-25T06:35:18;7.30;99.90
46091;DHT22;31826;53.572;10.170;2023-04-25T06:37:44;7.30;99.90
46091;DHT22;31826;53.572;10.170;2023-04-25T06:40:10;7.40;99.90
46091;DHT22;31826;53.572;10.170;2023-04-25T06:42:36;7.40;99.90
46091;DHT22;31826;53.572;10.170;2023-04-25T06:45:02;7.40;99.90
46091;DHT22;31826;53.572;10.170;2023-04-25T06:47:28;7.50;99.90
46091;DHT22;31826;53.572;10.170;2023-04-25T06:49:55;7.40;99.90
46091;DHT22;31826;53.572;10.170;2023-04-25T06:52:21;7.40;99.90
46091;DHT22;31826;53.572;10.170;2023-04-25T06:54:46;7.40;99.90
46091;DHT22;31826;53.572;10.170;2023-04-25T06:57:12;7.40;99.90
46091;DHT22;31826;53.572;10.170;2023-04-25T06:59:38;7.50;99.90
46091;DHT22;31826;53.572;10.170;2023-04-25T07:02:05;7.50;99.90
46091;DHT22;31826;53.572;10.170;2023-04-25T07:04:31;7.60;99.90
46091;DHT22;31826;53.572;10.170;2023-04-25T07:06:57;7.60;99.90
46091;DHT22;31826;53.572;10.170;2023-04-25T07:09:22;7.60;99.90
46091;DHT22;31826;53.572;10.170;2023-04-25T07:11:48;7.50;99.90
46091;DHT22;31826;53.572;10.170;2023-04-25T07:14:14;7.60;99.90
46091;DHT22;31826;53.572;10.170;2023-04-25T07:16:40;7.60;99.90
46091;DHT22;31826;53.572;10.170;2023-04-25T07:19:06;7.60;99.90
46091;DHT22;31826;53.572;10.170;2023-04-25T07:21:32;7.80;99.90
46091;DHT22;31826;53.572;10.170;2023-04-25T07:23:58;7.70;99.90
46091;DHT22;31826;53.572;10.170;2023-04-25T07:26:23;7.80;99.90
46091;DHT22;31826;53.572;10.170;2023-04-25T07:28:49;7.80;99.90
46091;DHT22;31826;53.572;10.170;2023-04-25T07:31:17;7.70;99.90
46091;DHT22;31826;53.572;10.170;2023-04-25T07:33:44;7.60;99.90
46091;DHT22;31826;53.572;10.170;2023-04-25T07:36:11;7.60;99.90
46091;DHT22;31826;53.572;10.170;2023-04-25T07:38:38;7.50;99.90
46091;DHT22;31826;53.572;10.170;2023-04-25T07:41:03;7.30;99.90
46091;DHT22;31826;53.572;10.170;2023-04-25T07:43:29;7.20;99.90
46091;DHT22;31826;53.572;10.170;2023-04-25T07:45:56;7.00;99.90
46091;DHT22;31826;53.572;10.170;2023-04-25T07:48:22;6.90;99.90
46091;DHT22;31826;53.572;10.170;2023-04-25T07:50:48;7.10;99.90
46091;DHT22;31826;53.572;10.170;2023-04-25T07:53:14;7.20;99.90
46091;DHT22;31826;53.572;10.170;2023-04-25T07:55:40;7.30;99.90
46091;DHT22;31826;53.572;10.170;2023-04-25T07:58:06;7.40;99.90
46091;DHT22;31826;53.572;10.170;2023-04-25T08:00:32;7.60;99.90
46091;DHT22;31826;53.572;10.170;2023-04-25T08:02:58;7.70;99.90
46091;DHT22;31826;53.572;10.170;2023-04-25T08:05:23;7.80;99.90
46091;DHT22;31826;53.572;10.170;2023-04-25T08:07:49;7.90;99.90
46091;DHT22;31826;53.572;10.170;2023-04-25T08:10:15;8.00;99.90
46091;DHT22;31826;53.572;10.170;2023-04-25T08:12:41;8.30;99.90
46091;DHT22;31826;53.572;10.170;2023-04-25T08:15:07;8.60;99.90
46091;DHT22;31826;53.572;10.170;2023-04-25T08:17:33;8.70;99.90
46091;DHT22;31826;53.572;10.170;2023-04-25T08:19:59;8.80;99.90
46091;DHT22;31826;53.572;10.170;2023-04-25T08:22:24;8.80;99.90
46091;DHT22;31826;53.572;10.170;2023-04-25T08:24:50;8.80;99.90
46091;DHT22;31826;53.572;10.170;2023-04-25T08:27:18;8.80;99.90
46091;DHT22;31826;53.572;10.170;2023-04-25T08:29:43;8.60;99.90
46091;DHT22;31826;53.572;10.170;2023-04-25T08:32:09;8.60;99.90
46091;DHT22;31826;53.572;10.170;2023-04-25T08:34:35;8.50;99.90
46091;DHT22;31826;53.572;10.170;2023-04-25T08:37:02;8.10;99.90
46091;DHT22;31826;53.572;10.170;2023-04-25T08:39:29;8.10;99.90
46091;DHT22;31826;53.572;10.170;2023-04-25T08:41:56;8.00;99.90
46091;DHT22;31826;53.572;10.170;2023-04-25T08:44:22;7.90;99.90
46091;DHT22;31826;53.572;10.170;2023-04-25T08:46:49;7.80;99.90
46091;DHT22;31826;53.572;10.170;2023-04-25T08:49:17;7.90;99.90
46091;DHT22;31826;53.572;10.170;2023-04-25T08:51:46;8.00;99.90
46091;DHT22;31826;53.572;10.170;2023-04-25T08:54:14;8.10;99.90
46091;DHT22;31826;53.572;10.170;2023-04-25T08:56:45;8.20;99.90
46091;DHT22;31826;53.572;10.170;2023-04-25T08:59:13;8.30;99.90
46091;DHT22;31826;53.572;10.170;2023-04-25T09:01:39;8.40;99.90
46091;DHT22;31826;53.572;10.170;2023-04-25T09:04:05;8.20;99.90
46091;DHT22;31826;53.572;10.170;2023-04-25T09:06:31;8.10;99.90
46091;DHT22;31826;53.572;10.170;2023-04-25T09:09:04;8.20;99.90
46091;DHT22;31826;53.572;10.170;2023-04-25T09:11:31;8.30;99.90
46091;DHT22;31826;53.572;10.170;2023-04-25T09:14:16;8.30;99.90
46091;DHT22;31826;53.572;10.170;2023-04-25T09:17:11;8.40;99.90
46091;DHT22;31826;53.572;10.170;2023-04-25T09:19:37;8.60;99.90
46091;DHT22;31826;53.572;10.170;2023-04-25T09:22:06;8.70;99.90
46091;DHT22;31826;53.572;10.170;2023-04-25T09:24:40;8.80;99.90
46091;DHT22;31826;53.572;10.170;2023-04-25T09:27:17;8.80;99.90
46091;DHT22;31826;53.572;10.170;2023-04-25T09:29:43;8.70;99.90
46091;DHT22;31826;53.572;10.170;2023-04-25T09:32:20;8.60;99.90
46091;DHT22;31826;53.572;10.170;2023-04-25T09:34:48;8.60;99.90
46091;DHT22;31826;53.572;10.170;2023-04-25T09:37:25;8.70;99.90
46091;DHT22;31826;53.572;10.170;2023-04-25T09:39:57;8.90;99.90
46091;DHT22;31826;53.572;10.170;2023-04-25T09:42:25;9.00;99.90
46091;DHT22;31826;53.572;10.170;2023-04-25T09:44:53;9.20;99.90
46091;DHT22;31826;53.572;10.170;2023-04-25T09:47:19;9.60;99.90
46091;DHT22;31826;53.572;10.170;2023-04-25T09:49:47;9.70;99.90
46091;DHT22;31826;53.572;10.170;2023-04-25T09:52:18;9.60;99.90
46091;DHT22;31826;53.572;10.170;2023-04-25T09:54:48;9.50;99.90
46091;DHT22;31826;53.572;10.170;2023-04-25T09:57:22;9.00;99.90
46091;DHT22;31826;53.572;10.170;2023-04-25T09:59:50;8.50;99.90
46091;DHT22;31826;53.572;10.170;2023-04-25T10:02:19;7.90;99.90
46091;DHT22;31826;53.572;10.170;2023-04-25T10:04:48;7.50;99.90
46091;DHT22;31826;53.572;10.170;2023-04-25T10:07:14;7.50;99.90
46091;DHT22;31826;53.572;10.170;2023-04-25T10:09:40;7.50;99.90
46091;DHT22;31826;53.572;10.170;2023-04-25T10:12:08;7.80;99.90
46091;DHT22;31826;53.572;10.170;2023-04-25T10:14:34;8.20;99.90
46091;DHT22;31826;53.572;10.170;2023-04-25T10:17:00;8.60;99.90
46091;DHT22;31826;53.572;10.170;2023-04-25T10:19:27;9.10;99.90
46091;DHT22;31826;53.572;10.170;2023-04-25T10:24:30;9.80;99.90
46091;DHT22;31826;53.572;10.170;2023-04-25T10:26:57;9.90;99.90
46091;DHT22;31826;53.572;10.170;2023-04-25T10:29:27;10.30;99.90
46091;DHT22;31826;53.572;10.170;2023-04-25T10:31:53;10.50;99.90
46091;DHT22;31826;53.572;10.170;2023-04-25T10:34:19;10.60;99.90
46091;DHT22;31826;53.572;10.170;2023-04-25T10:36:52;10.80;99.90
46091;DHT22;31826;53.572;10.170;2023-04-25T10:39:26;10.80;99.90
46091;DHT22;31826;53.572;10.170;2023-04-25T10:41:59;10.70;99.00
46091;DHT22;31826;53.572;10.170;2023-04-25T10:44:31;10.40;98.50
46091;DHT22;31826;53.572;10.170;2023-04-25T10:47:01;10.40;99.20
46091;DHT22;31826;53.572;10.170;2023-04-25T10:49:33;10.90;99.60
46091;DHT22;31826;53.572;10.170;2023-04-25T10:54:55;11.50;97.30
46091;DHT22;31826;53.572;10.170;2023-04-25T10:57:31;11.40;97.60
46091;DHT22;31826;53.572;10.170;2023-04-25T11:00:20;11.60;97.70
46091;DHT22;31826;53.572;10.170;2023-04-25T11:02:58;11.60;98.60
46091;DHT22;31826;53.572;10.170;2023-04-25T11:05:33;11.50;97.60
46091;DHT22;31826;53.572;10.170;2023-04-25T11:07:59;11.70;98.20
46091;DHT22;31826;53.572;10.170;2023-04-25T11:10:27;11.50;96.60
46091;DHT22;31826;53.572;10.170;2023-04-25T11:12:53;11.20;97.60
46091;DHT22;31826;53.572;10.170;2023-04-25T11:15:18;11.00;97.50
46091;DHT22;31826;53.572;10.170;2023-04-25T11:17:44;10.80;98.40
46091;DHT22;31826;53.572;10.170;2023-04-25T11:20:12;10.50;96.60
46091;DHT22;31826;53.572;10.170;2023-04-25T11:22:40;10.70;96.40
46091;DHT22;31826;53.572;10.170;2023-04-25T11:25:08;11.00;96.90
46091;DHT22;31826;53.572;10.170;2023-04-25T11:27:34;11.00;96.70
46091;DHT22;31826;53.572;10.170;2023-04-25T11:30:13;10.90;97.80
46091;DHT22;31826;53.572;10.170;2023-04-25T11:32:40;10.80;98.70
46091;DHT22;31826;53.572;10.170;2023-04-25T11:35:07;10.60;98.90
46091;DHT22;31826;53.572;10.170;2023-04-25T11:37:33;9.90;99.50
46091;DHT22;31826;53.572;10.170;2023-04-25T11:40:00;9.60;99.70
46091;DHT22;31826;53.572;10.170;2023-04-25T11:42:25;9.40;99.90
46091;DHT22;31826;53.572;10.170;2023-04-25T11:44:52;9.40;99.90
46091;DHT22;31826;53.572;10.170;2023-04-25T11:47:17;9.20;99.70
46091;DHT22;31826;53.572;10.170;2023-04-25T11:49:43;9.30;99.90
46091;DHT22;31826;53.572;10.170;2023-04-25T11:52:09;9.30;99.80
46091;DHT22;31826;53.572;10.170;2023-04-25T11:54:36;9.30;99.60
46091;DHT22;31826;53.572;10.170;2023-04-25T11:57:02;9.30;99.30
46091;DHT22;31826;53.572;10.170;2023-04-25T11:59:28;9.40;99.60
46091;DHT22;31826;53.572;10.170;2023-04-25T12:01:54;10.00;99.90
46091;DHT22;31826;53.572;10.170;2023-04-25T12:04:21;10.40;99.20
46091;DHT22;31826;53.572;10.170;2023-04-25T12:06:51;10.70;98.10
46091;DHT22;31826;53.572;10.170;2023-04-25T12:09:27;11.30;97.80
46091;DHT22;31826;53.572;10.170;2023-04-25T12:11:55;11.70;97.10
46091;DHT22;31826;53.572;10.170;2023-04-25T12:14:30;11.70;96.10
46091;DHT22;31826;53.572;10.170;2023-04-25T12:16:57;11.60;96.70
46091;DHT22;31826;53.572;10.170;2023-04-25T12:19:24;11.90;97.70
46091;DHT22;31826;53.572;10.170;2023-04-25T12:21:51;12.30;96.00
46091;DHT22;31826;53.572;10.170;2023-04-25T12:24:21;12.70;94.70
46091;DHT22;31826;53.572;10.170;2023-04-25T12:27:03;12.70;94.50
46091;DHT22;31826;53.572;10.170;2023-04-25T12:29:31;12.60;94.40
46091;DHT22;31826;53.572;10.170;2023-04-25T12:31:58;12.90;92.40
46091;DHT22;31826;53.572;10.170;2023-04-25T12:34:24;12.20;91.30
46091;DHT22;31826;53.572;10.170;2023-04-25T12:36:51;12.00;91.70
46091;DHT22;31826;53.572;10.170;2023-04-25T12:39:21;12.40;93.30
46091;DHT22;31826;53.572;10.170;2023-04-25T12:41:52;12.90;93.30
46091;DHT22;31826;53.572;10.170;2023-04-25T12:44:19;13.00;91.20
46091;DHT22;31826;53.572;10.170;2023-04-25T12:46:46;13.60;91.60
46091;DHT22;31826;53.572;10.170;2023-04-25T12:49:12;13.80;90.00
46091;DHT22;31826;53.572;10.170;2023-04-25T12:51:38;13.90;89.20
46091;DHT22;31826;53.572;10.170;2023-04-25T12:54:04;13.80;89.30
46091;DHT22;31826;53.572;10.170;2023-04-25T12:56:31;13.20;90.00
46091;DHT22;31826;53.572;10.170;2023-04-25T12:58:57;12.60;90.80
46091;DHT22;31826;53.572;10.170;2023-04-25T13:01:24;12.10;91.10
46091;DHT22;31826;53.572;10.170;2023-04-25T13:03:50;11.70;93.00
46091;DHT22;31826;53.572;10.170;2023-04-25T13:06:17;11.40;92.70
46091;DHT22;31826;53.572;10.170;2023-04-25T13:08:43;10.90;93.20
46091;DHT22;31826;53.572;10.170;2023-04-25T13:11:09;10.60;93.80
46091;DHT22;31826;53.572;10.170;2023-04-25T13:13:35;10.90;95.50
46091;DHT22;31826;53.572;10.170;2023-04-25T13:16:04;11.00;95.30
46091;DHT22;31826;53.572;10.170;2023-04-25T13:18:31;11.70;95.90
46091;DHT22;31826;53.572;10.170;2023-04-25T13:20:57;12.00;93.40
46091;DHT22;31826;53.572;10.170;2023-04-25T13:23:25;12.40;93.90
46091;DHT22;31826;53.572;10.170;2023-04-25T13:25:52;13.10;93.70
46091;DHT22;31826;53.572;10.170;2023-04-25T13:28:18;13.10;92.70
46091;DHT22;31826;53.572;10.170;2023-04-25T13:30:44;12.80;92.40
46091;DHT22;31826;53.572;10.170;2023-04-25T13:33:10;11.80;92.40
46091;DHT22;31826;53.572;10.170;2023-04-25T13:35:36;11.00;94.10
46091;DHT22;31826;53.572;10.170;2023-04-25T13:38:02;10.50;95.10
46091;DHT22;31826;53.572;10.170;2023-04-25T13:40:29;10.30;96.00
46091;DHT22;31826;53.572;10.170;2023-04-25T13:42:55;10.40;96.40
46091;DHT22;31826;53.572;10.170;2023-04-25T13:45:21;10.40;96.40
46091;DHT22;31826;53.572;10.170;2023-04-25T13:47:47;10.70;96.80
46091;DHT22;31826;53.572;10.170;2023-04-25T13:50:13;11.30;96.20
46091;DHT22;31826;53.572;10.170;2023-04-25T13:52:40;11.90;95.30
46091;DHT22;31826;53.572;10.170;2023-04-25T13:55:06;12.40;94.80
46091;DHT22;31826;53.572;10.170;2023-04-25T13:57:33;12.00;94.30
46091;DHT22;31826;53.572;10.170;2023-04-25T13:59:59;11.30;95.70
46091;DHT22;31826;53.572;10.170;2023-04-25T14:02:25;10.30;97.90
46091;DHT22;31826;53.572;10.170;2023-04-25T14:04:51;9.60;99.90
46091;DHT22;31826;53.572;10.170;2023-04-25T14:07:17;9.50;99.90
46091;DHT22;31826;53.572;10.170;2023-04-25T14:09:44;9.40;99.90
46091;DHT22;31826;53.572;10.170;2023-04-25T14:12:10;9.20;99.90
46091;DHT22;31826;53.572;10.170;2023-04-25T14:14:36;9.10;99.90
46091;DHT22;31826;53.572;10.170;2023-04-25T14:17:03;9.30;99.10
46091;DHT22;31826;53.572;10.170;2023-04-25T14:19:29;9.30;98.60
46091;DHT22;31826;53.572;10.170;2023-04-25T14:21:55;9.20;98.20
46091;DHT22;31826;53.572;10.170;2023-04-25T14:24:21;9.40;98.10
46091;DHT22;31826;53.572;10.170;2023-04-25T14:26:46;9.40;98.50
46091;DHT22;31826;53.572;10.170;2023-04-25T14:29:12;9.70;98.30
46091;DHT22;31826;53.572;10.170;2023-04-25T14:31:39;10.00;97.60
46091;DHT22;31826;53.572;10.170;2023-04-25T14:34:05;10.50;96.90
46091;DHT22;31826;53.572;10.170;2023-04-25T14:36:32;11.00;96.70
46091;DHT22;31826;53.572;10.170;2023-04-25T14:38:58;11.40;97.10
46091;DHT22;31826;53.572;10.170;2023-04-25T14:41:24;11.80;97.00
46091;DHT22;31826;53.572;10.170;2023-04-25T14:43:51;12.10;95.60
46091;DHT22;31826;53.572;10.170;2023-04-25T14:46:18;12.00;95.70
46091;DHT22;31826;53.572;10.170;2023-04-25T14:48:44;11.70;95.20
46091;DHT22;31826;53.572;10.170;2023-04-25T14:51:10;11.30;95.80
46091;DHT22;31826;53.572;10.170;2023-04-25T14:53:36;11.20;96.10
46091;DHT22;31826;53.572;10.170;2023-04-25T14:56:02;11.10;96.30
46091;DHT22;31826;53.572;10.170;2023-04-25T14:58:27;11.00;95.80
46091;DHT22;31826;53.572;10.170;2023-04-25T15:00:53;10.90;94.70
46091;DHT22;31826;53.572;10.170;2023-04-25T15:03:19;10.90;95.10
46091;DHT22;31826;53.572;10.170;2023-04-25T15:05:44;11.30;93.60
46091;DHT22;31826;53.572;10.170;2023-04-25T15:08:10;11.70;93.20
46091;DHT22;31826;53.572;10.170;2023-04-25T15:10:36;11.20;92.60
46091;DHT22;31826;53.572;10.170;2023-04-25T15:13:03;10.90;92.70
46091;DHT22;31826;53.572;10.170;2023-04-25T15:15:29;10.80;92.50
46091;DHT22;31826;53.572;10.170;2023-04-25T15:17:55;10.60;92.50
46091;DHT22;31826;53.572;10.170;2023-04-25T15:20:21;10.10;94.50
46091;DHT22;31826;53.572;10.170;2023-04-25T15:22:47;9.80;96.30
46091;DHT22;31826;53.572;10.170;2023-04-25T15:25:16;9.70;96.60
46091;DHT22;31826;53.572;10.170;2023-04-25T15:27:45;10.00;97.00
46091;DHT22;31826;53.572;10.170;2023-04-25T15:30:15;10.30;97.50